NWK1602 YPPH-YPLM
Flight info
| Callsign | NWK1602 |
|---|---|
| Flight time | 1h 37m |
| Altitude | 34000 |
| Route | AVNEX H16 LM |
| Aircraft | A319/M-SDFGHIRWXYZ/LB1 |
Departure
| Time | 2026-04-26 04:17 |
|---|---|
| Airport | Perth International Airport (YPPH) |
Arrival
| Time | 2026-04-26 05:55 |
|---|---|
| Airport | Learmonth Airport (YPLM) |
| Time | Latitude | Longitude | Altitude | Speed | Heading |
|---|---|---|---|---|---|
| 2026-04-26 03:54 | -31.93466 | 115.96149 | 68 ft | 0 kts | 300° |
| 2026-04-26 04:09 | -31.93479 | 115.96173 | 58 ft | 4 kts | 309° |
| 2026-04-26 04:09 | -31.93495 | 115.96197 | 62 ft | 4 kts | 291° |
| 2026-04-26 04:09 | -31.93498 | 115.96224 | 70 ft | 4 kts | 259° |
| 2026-04-26 04:10 | -31.93487 | 115.96251 | 64 ft | 4 kts | 215° |
| 2026-04-26 04:10 | -31.93468 | 115.96263 | 63 ft | 0 kts | 204° |
| 2026-04-26 04:12 | -31.93469 | 115.96263 | 63 ft | 1 kts | 204° |
| 2026-04-26 04:12 | -31.93469 | 115.96262 | 64 ft | 1 kts | 204° |
| 2026-04-26 04:13 | -31.93522 | 115.96230 | 49 ft | 12 kts | 213° |
| 2026-04-26 04:13 | -31.93607 | 115.96190 | 65 ft | 15 kts | 191° |
| 2026-04-26 04:13 | -31.93721 | 115.96183 | 65 ft | 18 kts | 171° |
| 2026-04-26 04:13 | -31.93856 | 115.96213 | 64 ft | 21 kts | 166° |
| 2026-04-26 04:14 | -31.94002 | 115.96256 | 64 ft | 23 kts | 167° |
| 2026-04-26 04:14 | -31.94151 | 115.96235 | 68 ft | 22 kts | 194° |
| 2026-04-26 04:14 | -31.94308 | 115.96187 | 68 ft | 25 kts | 194° |
| 2026-04-26 04:14 | -31.94408 | 115.96158 | 63 ft | 22 kts | 194° |
| 2026-04-26 04:15 | -31.94551 | 115.96116 | 64 ft | 22 kts | 193° |
| 2026-04-26 04:15 | -31.94687 | 115.96078 | 65 ft | 19 kts | 194° |
| 2026-04-26 04:15 | -31.94825 | 115.96037 | 64 ft | 22 kts | 194° |
| 2026-04-26 04:15 | -31.94947 | 115.96001 | 65 ft | 15 kts | 194° |
| 2026-04-26 04:16 | -31.95037 | 115.96047 | 61 ft | 17 kts | 111° |
| 2026-04-26 04:16 | -31.95062 | 115.96190 | 65 ft | 16 kts | 81° |
| 2026-04-26 04:16 | -31.94947 | 115.96240 | 67 ft | 26 kts | 14° |
| 2026-04-26 04:16 | -31.94577 | 115.96347 | 68 ft | 86 kts | 13° |
| 2026-04-26 04:17 | -31.93804 | 115.96573 | 71 ft | 142 kts | 14° |
| 2026-04-26 04:17 | -31.92737 | 115.96884 | 401 ft | 161 kts | 18° |
| 2026-04-26 04:17 | -31.91655 | 115.97193 | 1105 ft | 160 kts | 17° |
| 2026-04-26 04:17 | -31.90231 | 115.97606 | 1980 ft | 161 kts | 18° |
| 2026-04-26 04:18 | -31.89466 | 115.97832 | 2205 ft | 175 kts | 17° |
| 2026-04-26 04:18 | -31.88205 | 115.98166 | 2502 ft | 199 kts | 9° |
| 2026-04-26 04:18 | -31.86814 | 115.97691 | 2857 ft | 225 kts | 323° |
| 2026-04-26 04:18 | -31.85896 | 115.96085 | 3291 ft | 255 kts | 291° |
| 2026-04-26 04:19 | -31.85483 | 115.93993 | 4016 ft | 268 kts | 279° |
| 2026-04-26 04:19 | -31.85274 | 115.91792 | 4822 ft | 280 kts | 276° |
| 2026-04-26 04:19 | -31.85096 | 115.89403 | 5249 ft | 304 kts | 276° |
| 2026-04-26 04:19 | -31.84889 | 115.86858 | 5806 ft | 317 kts | 277° |
| 2026-04-26 04:20 | -31.84644 | 115.84301 | 6653 ft | 321 kts | 278° |
| 2026-04-26 04:20 | -31.84356 | 115.81683 | 7466 ft | 324 kts | 279° |
| 2026-04-26 04:20 | -31.84037 | 115.79049 | 8286 ft | 327 kts | 279° |
| 2026-04-26 04:20 | -31.83700 | 115.76399 | 9090 ft | 330 kts | 279° |
| 2026-04-26 04:21 | -31.83412 | 115.73693 | 9912 ft | 335 kts | 274° |
| 2026-04-26 04:21 | -31.83589 | 115.70947 | 10620 ft | 341 kts | 260° |
| 2026-04-26 04:21 | -31.84248 | 115.68257 | 11324 ft | 345 kts | 253° |
| 2026-04-26 04:21 | -31.84988 | 115.65554 | 12033 ft | 348 kts | 253° |
| 2026-04-26 04:22 | -31.85710 | 115.62825 | 12717 ft | 351 kts | 257° |
| 2026-04-26 04:22 | -31.85905 | 115.59971 | 13371 ft | 352 kts | 277° |
| 2026-04-26 04:22 | -31.85269 | 115.57196 | 14036 ft | 353 kts | 296° |
| 2026-04-26 04:22 | -31.83867 | 115.54824 | 14619 ft | 355 kts | 315° |
| 2026-04-26 04:23 | -31.81851 | 115.53127 | 15078 ft | 363 kts | 335° |
| 2026-04-26 04:23 | -31.79410 | 115.52255 | 15623 ft | 368 kts | 346° |
| 2026-04-26 04:23 | -31.76904 | 115.51563 | 16198 ft | 372 kts | 345° |
| 2026-04-26 04:23 | -31.74376 | 115.50866 | 16769 ft | 375 kts | 345° |
| 2026-04-26 04:24 | -31.71826 | 115.50157 | 17334 ft | 378 kts | 345° |
| 2026-04-26 04:24 | -31.69256 | 115.49437 | 17901 ft | 382 kts | 344° |
| 2026-04-26 04:24 | -31.66661 | 115.48709 | 18473 ft | 385 kts | 344° |
| 2026-04-26 04:24 | -31.64043 | 115.47975 | 18966 ft | 388 kts | 344° |
| 2026-04-26 04:25 | -31.61407 | 115.47238 | 19491 ft | 390 kts | 344° |
| 2026-04-26 04:25 | -31.58756 | 115.46498 | 20028 ft | 392 kts | 344° |
| 2026-04-26 04:25 | -31.56086 | 115.45752 | 20563 ft | 395 kts | 344° |
| 2026-04-26 04:25 | -31.53444 | 115.45014 | 21085 ft | 397 kts | 344° |
| 2026-04-26 04:26 | -31.50718 | 115.44252 | 21594 ft | 399 kts | 344° |
| 2026-04-26 04:26 | -31.48011 | 115.43494 | 22084 ft | 401 kts | 344° |
| 2026-04-26 04:26 | -31.45327 | 115.42745 | 22553 ft | 403 kts | 344° |
| 2026-04-26 04:26 | -31.42593 | 115.41986 | 23022 ft | 405 kts | 344° |
| 2026-04-26 04:27 | -31.39842 | 115.41225 | 23481 ft | 407 kts | 344° |
| 2026-04-26 04:27 | -31.37079 | 115.40460 | 23904 ft | 409 kts | 344° |
| 2026-04-26 04:27 | -31.34302 | 115.39689 | 24270 ft | 411 kts | 344° |
| 2026-04-26 04:27 | -31.31513 | 115.38914 | 24640 ft | 413 kts | 344° |
| 2026-04-26 04:28 | -31.28714 | 115.38137 | 24997 ft | 415 kts | 344° |
| 2026-04-26 04:28 | -31.25899 | 115.37352 | 25359 ft | 417 kts | 344° |
| 2026-04-26 04:28 | -31.23070 | 115.36560 | 25719 ft | 419 kts | 344° |
| 2026-04-26 04:28 | -31.20228 | 115.35769 | 26085 ft | 421 kts | 344° |
| 2026-04-26 04:29 | -31.17375 | 115.34978 | 26431 ft | 423 kts | 344° |
| 2026-04-26 04:29 | -31.14503 | 115.34184 | 26777 ft | 425 kts | 344° |
| 2026-04-26 04:29 | -31.11623 | 115.33388 | 27123 ft | 427 kts | 344° |
| 2026-04-26 04:29 | -31.08725 | 115.32591 | 27466 ft | 429 kts | 344° |
| 2026-04-26 04:30 | -31.05812 | 115.31790 | 27803 ft | 431 kts | 344° |
| 2026-04-26 04:30 | -31.02885 | 115.30984 | 28131 ft | 433 kts | 344° |
| 2026-04-26 04:30 | -30.99951 | 115.30174 | 28442 ft | 435 kts | 344° |
| 2026-04-26 04:30 | -30.96998 | 115.29357 | 28752 ft | 437 kts | 344° |
| 2026-04-26 04:31 | -30.94068 | 115.28545 | 29048 ft | 439 kts | 344° |
| 2026-04-26 04:31 | -30.91088 | 115.27720 | 29349 ft | 441 kts | 344° |
| 2026-04-26 04:31 | -30.88092 | 115.26896 | 29647 ft | 443 kts | 344° |
| 2026-04-26 04:31 | -30.85084 | 115.26072 | 29936 ft | 445 kts | 344° |
| 2026-04-26 04:32 | -30.82058 | 115.25244 | 30223 ft | 447 kts | 344° |
| 2026-04-26 04:32 | -30.79023 | 115.24412 | 30468 ft | 449 kts | 344° |
| 2026-04-26 04:32 | -30.75979 | 115.23578 | 30791 ft | 448 kts | 344° |
| 2026-04-26 04:32 | -30.72949 | 115.22748 | 31166 ft | 447 kts | 343° |
| 2026-04-26 04:33 | -30.69927 | 115.21919 | 31542 ft | 445 kts | 343° |
| 2026-04-26 04:33 | -30.66911 | 115.21091 | 31902 ft | 444 kts | 343° |
| 2026-04-26 04:33 | -30.63947 | 115.20279 | 32266 ft | 443 kts | 342° |
| 2026-04-26 04:33 | -30.60955 | 115.19460 | 32620 ft | 442 kts | 342° |
| 2026-04-26 04:34 | -30.57960 | 115.18643 | 32991 ft | 441 kts | 342° |
| 2026-04-26 04:34 | -30.54980 | 115.17832 | 33357 ft | 440 kts | 342° |
| 2026-04-26 04:34 | -30.51999 | 115.17020 | 33727 ft | 439 kts | 341° |
| 2026-04-26 04:34 | -30.49026 | 115.16207 | 34053 ft | 439 kts | 341° |
| 2026-04-26 04:35 | -30.46059 | 115.15396 | 34135 ft | 437 kts | 341° |
| 2026-04-26 04:35 | -30.40152 | 115.13784 | 34141 ft | 434 kts | 341° |
| 2026-04-26 04:36 | -30.34307 | 115.12191 | 34136 ft | 434 kts | 341° |
| 2026-04-26 04:36 | -30.28419 | 115.10590 | 34136 ft | 434 kts | 341° |
| 2026-04-26 04:37 | -30.22528 | 115.08993 | 34134 ft | 434 kts | 341° |
| 2026-04-26 04:37 | -30.16648 | 115.07401 | 34128 ft | 433 kts | 341° |
| 2026-04-26 04:38 | -30.10782 | 115.05807 | 34124 ft | 433 kts | 341° |
| 2026-04-26 04:38 | -30.04970 | 115.04235 | 34130 ft | 432 kts | 342° |
| 2026-04-26 04:39 | -29.99127 | 115.02661 | 34130 ft | 430 kts | 342° |
| 2026-04-26 04:39 | -29.93298 | 115.01084 | 34123 ft | 429 kts | 342° |
| 2026-04-26 04:40 | -29.87477 | 114.99514 | 34119 ft | 429 kts | 342° |
| 2026-04-26 04:40 | -29.81694 | 114.97964 | 34118 ft | 429 kts | 342° |
| 2026-04-26 04:41 | -29.75875 | 114.96396 | 34117 ft | 428 kts | 342° |
| 2026-04-26 04:41 | -29.70071 | 114.94823 | 34108 ft | 428 kts | 342° |
| 2026-04-26 04:42 | -29.64267 | 114.93261 | 34108 ft | 428 kts | 342° |
| 2026-04-26 04:42 | -29.58505 | 114.91727 | 34101 ft | 428 kts | 342° |
| 2026-04-26 04:43 | -29.52705 | 114.90185 | 34096 ft | 427 kts | 342° |
| 2026-04-26 04:43 | -29.46916 | 114.88627 | 34092 ft | 426 kts | 342° |
| 2026-04-26 04:44 | -29.41141 | 114.87074 | 34091 ft | 426 kts | 342° |
| 2026-04-26 04:44 | -29.35359 | 114.85540 | 34079 ft | 426 kts | 342° |
| 2026-04-26 04:45 | -29.29584 | 114.84002 | 34077 ft | 426 kts | 342° |
| 2026-04-26 04:45 | -29.23816 | 114.82460 | 34080 ft | 425 kts | 342° |
| 2026-04-26 04:46 | -29.18087 | 114.80943 | 34081 ft | 425 kts | 342° |
| 2026-04-26 04:46 | -29.12317 | 114.79419 | 34075 ft | 425 kts | 342° |
| 2026-04-26 04:47 | -29.06561 | 114.77893 | 34068 ft | 424 kts | 342° |
| 2026-04-26 04:47 | -29.00812 | 114.76366 | 34060 ft | 424 kts | 342° |
| 2026-04-26 04:48 | -28.98163 | 114.75666 | 34053 ft | 421 kts | 342° |
| 2026-04-26 04:49 | -28.97932 | 114.75605 | 34064 ft | 406 kts | 342° |
| 2026-04-26 04:49 | -28.95196 | 114.74877 | 34064 ft | 413 kts | 342° |
| 2026-04-26 04:49 | -28.89528 | 114.73371 | 34058 ft | 422 kts | 342° |
| 2026-04-26 04:50 | -28.83788 | 114.71855 | 34056 ft | 423 kts | 342° |
| 2026-04-26 04:50 | -28.78014 | 114.70507 | 34053 ft | 428 kts | 349° |
| 2026-04-26 04:51 | -28.72075 | 114.69926 | 34063 ft | 428 kts | 350° |
| 2026-04-26 04:51 | -28.66143 | 114.69342 | 34055 ft | 428 kts | 350° |
| 2026-04-26 04:52 | -28.60255 | 114.68764 | 34062 ft | 427 kts | 350° |
| 2026-04-26 04:52 | -28.54333 | 114.68183 | 34047 ft | 427 kts | 350° |
| 2026-04-26 04:53 | -28.48409 | 114.67600 | 34053 ft | 427 kts | 350° |
| 2026-04-26 04:53 | -28.42495 | 114.67013 | 34048 ft | 426 kts | 350° |
| 2026-04-26 04:54 | -28.36581 | 114.66431 | 34047 ft | 426 kts | 351° |
| 2026-04-26 04:54 | -28.30677 | 114.65861 | 34051 ft | 426 kts | 351° |
| 2026-04-26 04:55 | -28.24768 | 114.65280 | 34044 ft | 426 kts | 351° |
| 2026-04-26 04:55 | -28.18901 | 114.64700 | 34039 ft | 426 kts | 351° |
| 2026-04-26 04:56 | -28.12999 | 114.64130 | 34028 ft | 426 kts | 351° |
| 2026-04-26 04:56 | -28.07079 | 114.63558 | 34023 ft | 426 kts | 351° |
| 2026-04-26 04:57 | -28.01210 | 114.62976 | 34022 ft | 427 kts | 351° |
| 2026-04-26 04:57 | -27.95281 | 114.62401 | 34015 ft | 427 kts | 352° |
| 2026-04-26 04:58 | -27.89352 | 114.61833 | 34014 ft | 428 kts | 352° |
| 2026-04-26 04:58 | -27.83399 | 114.61259 | 34007 ft | 429 kts | 352° |
| 2026-04-26 04:59 | -27.77443 | 114.60679 | 34009 ft | 430 kts | 352° |
| 2026-04-26 04:59 | -27.71508 | 114.60101 | 34008 ft | 431 kts | 352° |
| 2026-04-26 05:00 | -27.65527 | 114.59519 | 34001 ft | 432 kts | 351° |
| 2026-04-26 05:00 | -27.59528 | 114.58931 | 33998 ft | 433 kts | 351° |
| 2026-04-26 05:01 | -27.53524 | 114.58346 | 33996 ft | 433 kts | 351° |
| 2026-04-26 05:01 | -27.47536 | 114.57777 | 33994 ft | 434 kts | 351° |
| 2026-04-26 05:02 | -27.41511 | 114.57202 | 33993 ft | 434 kts | 350° |
| 2026-04-26 05:02 | -27.35471 | 114.56620 | 33994 ft | 435 kts | 351° |
| 2026-04-26 05:03 | -27.29436 | 114.56033 | 33993 ft | 435 kts | 351° |
| 2026-04-26 05:03 | -27.23433 | 114.55456 | 33995 ft | 435 kts | 351° |
| 2026-04-26 05:04 | -27.17403 | 114.54881 | 33990 ft | 434 kts | 351° |
| 2026-04-26 05:04 | -27.11380 | 114.54308 | 33992 ft | 434 kts | 351° |
| 2026-04-26 05:05 | -27.05352 | 114.53734 | 33992 ft | 433 kts | 351° |
| 2026-04-26 05:05 | -26.99380 | 114.53159 | 33987 ft | 433 kts | 351° |
| 2026-04-26 05:06 | -26.93378 | 114.52583 | 33980 ft | 433 kts | 351° |
| 2026-04-26 05:06 | -26.87374 | 114.52008 | 33981 ft | 433 kts | 351° |
| 2026-04-26 05:07 | -26.81381 | 114.51432 | 33977 ft | 432 kts | 351° |
| 2026-04-26 05:07 | -26.75385 | 114.50863 | 33973 ft | 432 kts | 351° |
| 2026-04-26 05:08 | -26.70396 | 114.50384 | 33970 ft | 432 kts | 351° |
| 2026-04-26 05:08 | -26.63432 | 114.49721 | 33966 ft | 432 kts | 351° |
| 2026-04-26 05:09 | -26.57434 | 114.49161 | 33962 ft | 431 kts | 351° |
| 2026-04-26 05:09 | -26.52463 | 114.48693 | 33963 ft | 431 kts | 351° |
| 2026-04-26 05:10 | -26.46481 | 114.48128 | 33961 ft | 431 kts | 351° |
| 2026-04-26 05:10 | -26.39490 | 114.47465 | 33955 ft | 431 kts | 351° |
| 2026-04-26 05:11 | -26.34513 | 114.46987 | 33955 ft | 431 kts | 351° |
| 2026-04-26 05:11 | -26.28527 | 114.46418 | 33957 ft | 431 kts | 351° |
| 2026-04-26 05:12 | -26.22551 | 114.45860 | 33953 ft | 431 kts | 351° |
| 2026-04-26 05:12 | -26.16601 | 114.45292 | 33950 ft | 431 kts | 351° |
| 2026-04-26 05:13 | -26.10618 | 114.44722 | 33950 ft | 431 kts | 351° |
| 2026-04-26 05:13 | -26.04636 | 114.44169 | 33950 ft | 432 kts | 351° |
| 2026-04-26 05:14 | -25.98644 | 114.43621 | 33953 ft | 432 kts | 351° |
| 2026-04-26 05:14 | -25.92658 | 114.43053 | 33948 ft | 432 kts | 351° |
| 2026-04-26 05:15 | -25.86704 | 114.42480 | 33948 ft | 432 kts | 351° |
| 2026-04-26 05:15 | -25.80713 | 114.41924 | 33945 ft | 432 kts | 351° |
| 2026-04-26 05:16 | -25.74726 | 114.41375 | 33943 ft | 432 kts | 351° |
| 2026-04-26 05:16 | -25.68702 | 114.40812 | 33948 ft | 433 kts | 351° |
| 2026-04-26 05:17 | -25.62709 | 114.40247 | 33947 ft | 433 kts | 351° |
| 2026-04-26 05:17 | -25.56693 | 114.39688 | 33952 ft | 433 kts | 351° |
| 2026-04-26 05:18 | -25.50728 | 114.39132 | 33946 ft | 433 kts | 351° |
| 2026-04-26 05:18 | -25.44706 | 114.38568 | 33936 ft | 434 kts | 351° |
| 2026-04-26 05:19 | -25.38669 | 114.38008 | 33946 ft | 434 kts | 351° |
| 2026-04-26 05:19 | -25.32674 | 114.37455 | 33946 ft | 435 kts | 351° |
| 2026-04-26 05:20 | -25.26630 | 114.36897 | 33944 ft | 435 kts | 351° |
| 2026-04-26 05:20 | -25.20596 | 114.36336 | 33942 ft | 435 kts | 351° |
| 2026-04-26 05:21 | -25.14587 | 114.35775 | 33941 ft | 436 kts | 351° |
| 2026-04-26 05:21 | -25.08533 | 114.35209 | 33944 ft | 436 kts | 350° |
| 2026-04-26 05:22 | -25.02479 | 114.34646 | 33945 ft | 437 kts | 351° |
| 2026-04-26 05:22 | -24.96404 | 114.34089 | 33946 ft | 437 kts | 351° |
| 2026-04-26 05:23 | -24.90380 | 114.33531 | 33946 ft | 437 kts | 351° |
| 2026-04-26 05:23 | -24.84315 | 114.32967 | 33949 ft | 438 kts | 351° |
| 2026-04-26 05:24 | -24.78277 | 114.32414 | 33944 ft | 438 kts | 351° |
| 2026-04-26 05:24 | -24.72167 | 114.31857 | 33945 ft | 438 kts | 351° |
| 2026-04-26 05:25 | -24.66110 | 114.31299 | 33951 ft | 439 kts | 351° |
| 2026-04-26 05:25 | -24.60014 | 114.30739 | 33948 ft | 439 kts | 351° |
| 2026-04-26 05:26 | -24.53957 | 114.30185 | 33948 ft | 439 kts | 351° |
| 2026-04-26 05:26 | -24.47847 | 114.29626 | 33951 ft | 440 kts | 351° |
| 2026-04-26 05:27 | -24.41740 | 114.29069 | 33955 ft | 440 kts | 351° |
| 2026-04-26 05:27 | -24.35642 | 114.28502 | 33955 ft | 440 kts | 351° |
| 2026-04-26 05:28 | -24.29565 | 114.27947 | 33963 ft | 440 kts | 351° |
| 2026-04-26 05:28 | -24.23445 | 114.27395 | 33964 ft | 440 kts | 351° |
| 2026-04-26 05:29 | -24.17325 | 114.26835 | 33966 ft | 440 kts | 351° |
| 2026-04-26 05:29 | -24.11217 | 114.26277 | 33969 ft | 440 kts | 351° |
| 2026-04-26 05:30 | -24.05112 | 114.25723 | 33960 ft | 440 kts | 351° |
| 2026-04-26 05:30 | -23.99042 | 114.25176 | 33963 ft | 440 kts | 351° |
| 2026-04-26 05:31 | -23.92945 | 114.24622 | 33960 ft | 439 kts | 351° |
| 2026-04-26 05:31 | -23.86853 | 114.24064 | 33961 ft | 439 kts | 351° |
| 2026-04-26 05:32 | -23.80756 | 114.23501 | 33959 ft | 439 kts | 351° |
| 2026-04-26 05:32 | -23.74663 | 114.22950 | 33959 ft | 439 kts | 351° |
| 2026-04-26 05:33 | -23.68568 | 114.22402 | 33825 ft | 439 kts | 351° |
| 2026-04-26 05:33 | -23.65498 | 114.22126 | 32589 ft | 448 kts | 351° |
| 2026-04-26 05:33 | -23.62348 | 114.21836 | 31408 ft | 460 kts | 352° |
| 2026-04-26 05:34 | -23.59129 | 114.21542 | 30351 ft | 466 kts | 352° |
| 2026-04-26 05:34 | -23.55891 | 114.21252 | 28921 ft | 467 kts | 352° |
| 2026-04-26 05:34 | -23.52701 | 114.20971 | 28269 ft | 462 kts | 353° |
| 2026-04-26 05:34 | -23.49534 | 114.20695 | 27739 ft | 453 kts | 353° |
| 2026-04-26 05:35 | -23.46406 | 114.20417 | 27084 ft | 448 kts | 353° |
| 2026-04-26 05:35 | -23.43317 | 114.20137 | 26447 ft | 443 kts | 353° |
| 2026-04-26 05:35 | -23.40267 | 114.19862 | 25817 ft | 438 kts | 353° |
| 2026-04-26 05:35 | -23.37247 | 114.19587 | 25192 ft | 434 kts | 353° |
| 2026-04-26 05:36 | -23.34257 | 114.19316 | 24577 ft | 430 kts | 353° |
| 2026-04-26 05:36 | -23.31292 | 114.19050 | 23968 ft | 426 kts | 353° |
| 2026-04-26 05:36 | -23.28350 | 114.18787 | 23323 ft | 422 kts | 353° |
| 2026-04-26 05:36 | -23.25437 | 114.18525 | 22696 ft | 416 kts | 353° |
| 2026-04-26 05:37 | -23.22581 | 114.18268 | 22137 ft | 409 kts | 353° |
| 2026-04-26 05:37 | -23.19763 | 114.18011 | 21587 ft | 403 kts | 354° |
| 2026-04-26 05:37 | -23.16991 | 114.17759 | 21064 ft | 397 kts | 354° |
| 2026-04-26 05:37 | -23.14253 | 114.17510 | 20551 ft | 393 kts | 354° |
| 2026-04-26 05:38 | -23.11569 | 114.17267 | 20062 ft | 389 kts | 354° |
| 2026-04-26 05:38 | -23.08887 | 114.17025 | 19564 ft | 385 kts | 354° |
| 2026-04-26 05:38 | -23.06198 | 114.16785 | 19067 ft | 381 kts | 354° |
| 2026-04-26 05:38 | -23.03605 | 114.16557 | 18582 ft | 377 kts | 354° |
| 2026-04-26 05:39 | -23.00998 | 114.16327 | 18042 ft | 374 kts | 354° |
| 2026-04-26 05:39 | -22.98426 | 114.16096 | 17515 ft | 369 kts | 354° |
| 2026-04-26 05:39 | -22.95875 | 114.15866 | 16987 ft | 364 kts | 355° |
| 2026-04-26 05:39 | -22.93366 | 114.15639 | 16476 ft | 360 kts | 355° |
| 2026-04-26 05:40 | -22.90892 | 114.15415 | 15955 ft | 356 kts | 355° |
| 2026-04-26 05:40 | -22.88432 | 114.15193 | 15432 ft | 352 kts | 355° |
| 2026-04-26 05:40 | -22.86002 | 114.14978 | 14908 ft | 350 kts | 355° |
| 2026-04-26 05:40 | -22.83583 | 114.14765 | 14379 ft | 347 kts | 355° |
| 2026-04-26 05:41 | -22.81189 | 114.14555 | 13860 ft | 344 kts | 355° |
| 2026-04-26 05:41 | -22.78807 | 114.14343 | 13288 ft | 342 kts | 356° |
| 2026-04-26 05:41 | -22.76475 | 114.14135 | 12768 ft | 338 kts | 356° |
| 2026-04-26 05:41 | -22.74138 | 114.13923 | 12247 ft | 335 kts | 356° |
| 2026-04-26 05:42 | -22.71822 | 114.13715 | 11729 ft | 333 kts | 357° |
| 2026-04-26 05:42 | -22.69518 | 114.13513 | 11214 ft | 330 kts | 357° |
| 2026-04-26 05:42 | -22.67245 | 114.13314 | 10716 ft | 328 kts | 358° |
| 2026-04-26 05:42 | -22.65012 | 114.13116 | 10568 ft | 314 kts | 358° |
| 2026-04-26 05:43 | -22.62879 | 114.12922 | 10446 ft | 301 kts | 358° |
| 2026-04-26 05:43 | -22.60834 | 114.12735 | 10294 ft | 291 kts | 358° |
| 2026-04-26 05:43 | -22.58840 | 114.12556 | 10157 ft | 285 kts | 359° |
| 2026-04-26 05:43 | -22.57463 | 114.12436 | 10113 ft | 285 kts | 359° |
| 2026-04-26 05:44 | -22.55489 | 114.12264 | 10030 ft | 285 kts | 359° |
| 2026-04-26 05:44 | -22.53508 | 114.12088 | 9786 ft | 286 kts | 359° |
| 2026-04-26 05:44 | -22.51517 | 114.11911 | 9373 ft | 286 kts | 359° |
| 2026-04-26 05:44 | -22.49538 | 114.11733 | 8970 ft | 286 kts | 359° |
| 2026-04-26 05:45 | -22.47567 | 114.11558 | 8596 ft | 285 kts | 359° |
| 2026-04-26 05:45 | -22.45596 | 114.11382 | 8319 ft | 282 kts | 358° |
| 2026-04-26 05:45 | -22.43627 | 114.11207 | 7798 ft | 287 kts | 358° |
| 2026-04-26 05:45 | -22.41621 | 114.11029 | 7372 ft | 289 kts | 358° |
| 2026-04-26 05:46 | -22.39641 | 114.10898 | 6963 ft | 289 kts | 1° |
| 2026-04-26 05:46 | -22.37632 | 114.10866 | 6406 ft | 292 kts | 357° |
| 2026-04-26 05:46 | -22.35567 | 114.10396 | 4854 ft | 317 kts | 342° |
| 2026-04-26 05:46 | -22.33482 | 114.09380 | 3151 ft | 339 kts | 335° |
| 2026-04-26 05:47 | -22.31258 | 114.08281 | 1998 ft | 366 kts | 346° |
| 2026-04-26 05:47 | -22.28751 | 114.08067 | 2128 ft | 363 kts | 6° |
| 2026-04-26 05:47 | -22.26320 | 114.08706 | 2807 ft | 356 kts | 16° |
| 2026-04-26 05:47 | -22.23893 | 114.09288 | 3182 ft | 349 kts | 10° |
| 2026-04-26 05:48 | -22.21605 | 114.09518 | 3253 ft | 313 kts | 5° |
| 2026-04-26 05:48 | -22.19504 | 114.09670 | 2824 ft | 299 kts | 12° |
| 2026-04-26 05:48 | -22.17651 | 114.10526 | 2577 ft | 278 kts | 31° |
| 2026-04-26 05:48 | -22.16337 | 114.11892 | 2571 ft | 255 kts | 58° |
| 2026-04-26 05:49 | -22.15868 | 114.13614 | 2573 ft | 235 kts | 88° |
| 2026-04-26 05:49 | -22.17446 | 114.16186 | 2568 ft | 208 kts | 159° |
| 2026-04-26 05:49 | -22.18824 | 114.16381 | 2586 ft | 194 kts | 177° |
| 2026-04-26 05:50 | -22.20181 | 114.16366 | 2594 ft | 196 kts | 179° |
| 2026-04-26 05:50 | -22.21539 | 114.16319 | 2453 ft | 193 kts | 180° |
| 2026-04-26 05:50 | -22.22890 | 114.16280 | 2336 ft | 195 kts | 180° |
| 2026-04-26 05:50 | -22.24234 | 114.16245 | 2212 ft | 193 kts | 179° |
| 2026-04-26 05:51 | -22.25565 | 114.16209 | 2094 ft | 190 kts | 181° |
| 2026-04-26 05:51 | -22.26847 | 114.16187 | 1918 ft | 178 kts | 179° |
| 2026-04-26 05:51 | -22.28025 | 114.16127 | 1726 ft | 161 kts | 186° |
| 2026-04-26 05:51 | -22.28894 | 114.15500 | 1524 ft | 148 kts | 246° |
| 2026-04-26 05:52 | -22.29164 | 114.14457 | 1542 ft | 144 kts | 266° |
| 2026-04-26 05:52 | -22.29249 | 114.13399 | 1524 ft | 139 kts | 277° |
| 2026-04-26 05:52 | -22.29222 | 114.12355 | 1399 ft | 140 kts | 278° |
| 2026-04-26 05:52 | -22.29171 | 114.11311 | 1159 ft | 138 kts | 280° |
| 2026-04-26 05:53 | -22.29104 | 114.10296 | 992 ft | 134 kts | 282° |
| 2026-04-26 05:53 | -22.28813 | 114.09375 | 731 ft | 131 kts | 307° |
| 2026-04-26 05:53 | -22.28120 | 114.08809 | 664 ft | 124 kts | 344° |
| 2026-04-26 05:53 | -22.27254 | 114.08693 | 541 ft | 125 kts | 1° |
| 2026-04-26 05:54 | -22.26396 | 114.08757 | 438 ft | 126 kts | 8° |
| 2026-04-26 05:54 | -22.25509 | 114.08854 | 242 ft | 126 kts | 7° |
| 2026-04-26 05:54 | -22.24627 | 114.08923 | 58 ft | 127 kts | 6° |
| 2026-04-26 05:54 | -22.23840 | 114.08982 | 27 ft | 94 kts | 3° |
| 2026-04-26 05:55 | -22.23358 | 114.09015 | 24 ft | 45 kts | 2° |
| 2026-04-26 05:55 | -22.23164 | 114.09021 | 24 ft | 17 kts | 36° |
| 2026-04-26 05:55 | -22.23175 | 114.09044 | 24 ft | 5 kts | 184° |
| 2026-04-26 05:55 | -22.23227 | 114.09036 | 24 ft | 10 kts | 189° |
| 2026-04-26 05:56 | -22.23316 | 114.09019 | 24 ft | 16 kts | 186° |
| 2026-04-26 05:56 | -22.23431 | 114.09009 | 24 ft | 18 kts | 186° |
| 2026-04-26 05:56 | -22.23558 | 114.08996 | 27 ft | 19 kts | 185° |
| 2026-04-26 05:56 | -22.23696 | 114.08984 | 26 ft | 21 kts | 183° |
| 2026-04-26 05:57 | -22.23847 | 114.08980 | 27 ft | 23 kts | 179° |
| 2026-04-26 05:57 | -22.23988 | 114.08989 | 27 ft | 14 kts | 153° |
| 2026-04-26 05:57 | -22.24012 | 114.09076 | 25 ft | 11 kts | 94° |
| 2026-04-26 05:57 | -22.24016 | 114.09155 | 24 ft | 10 kts | 93° |
| 2026-04-26 05:58 | -22.24020 | 114.09220 | 24 ft | 8 kts | 94° |
| 2026-04-26 05:58 | -22.24009 | 114.09268 | 24 ft | 6 kts | 57° |
| 2026-04-26 05:58 | -22.23980 | 114.09301 | 26 ft | 5 kts | 57° |
| 2026-04-26 05:58 | -22.23983 | 114.09326 | 24 ft | 1 kts | 117° |
| 2026-04-26 05:59 | -22.23990 | 114.09329 | 24 ft | 2 kts | 161° |
| 2026-04-26 05:59 | -22.23993 | 114.09331 | 24 ft | 0 kts | 148° |